sensor_id;sensor_type;location;lat;lon;timestamp;temperature;humidity
17200;DHT22;8716;52.268;20.968;2022-07-01T00:02:08;25.40;99.90
17200;DHT22;8716;52.268;20.968;2022-07-01T00:04:45;25.40;99.90
17200;DHT22;8716;52.268;20.968;2022-07-01T00:07:32;25.40;99.90
17200;DHT22;8716;52.268;20.968;2022-07-01T00:10:00;25.40;99.90
17200;DHT22;8716;52.268;20.968;2022-07-01T00:12:28;25.30;99.90
17200;DHT22;8716;52.268;20.968;2022-07-01T00:14:56;25.30;99.90
17200;DHT22;8716;52.268;20.968;2022-07-01T00:17:24;25.30;99.90
17200;DHT22;8716;52.268;20.968;2022-07-01T00:19:54;25.30;99.90
17200;DHT22;8716;52.268;20.968;2022-07-01T00:22:22;25.30;99.90
17200;DHT22;8716;52.268;20.968;2022-07-01T00:24:50;25.20;99.90
17200;DHT22;8716;52.268;20.968;2022-07-01T00:27:18;25.20;99.90
17200;DHT22;8716;52.268;20.968;2022-07-01T00:29:46;25.20;99.90
17200;DHT22;8716;52.268;20.968;2022-07-01T00:32:14;25.20;99.90
17200;DHT22;8716;52.268;20.968;2022-07-01T00:34:45;25.20;99.90
17200;DHT22;8716;52.268;20.968;2022-07-01T00:37:14;25.20;99.90
17200;DHT22;8716;52.268;20.968;2022-07-01T00:39:42;25.30;99.90
17200;DHT22;8716;52.268;20.968;2022-07-01T00:42:11;25.30;99.90
17200;DHT22;8716;52.268;20.968;2022-07-01T00:44:41;25.30;99.90
17200;DHT22;8716;52.268;20.968;2022-07-01T00:47:11;25.20;99.90
17200;DHT22;8716;52.268;20.968;2022-07-01T00:49:41;25.20;99.90
17200;DHT22;8716;52.268;20.968;2022-07-01T00:52:09;25.20;99.90
17200;DHT22;8716;52.268;20.968;2022-07-01T00:54:40;25.20;99.90
17200;DHT22;8716;52.268;20.968;2022-07-01T00:57:11;25.20;99.90
17200;DHT22;8716;52.268;20.968;2022-07-01T00:59:39;25.20;99.90
17200;DHT22;8716;52.268;20.968;2022-07-01T01:02:08;25.20;99.90
17200;DHT22;8716;52.268;20.968;2022-07-01T01:04:37;25.20;99.90
17200;DHT22;8716;52.268;20.968;2022-07-01T01:07:06;25.20;99.90
17200;DHT22;8716;52.268;20.968;2022-07-01T01:09:36;25.20;99.90
17200;DHT22;8716;52.268;20.968;2022-07-01T01:12:06;25.10;99.90
17200;DHT22;8716;52.268;20.968;2022-07-01T01:14:44;25.10;99.90
17200;DHT22;8716;52.268;20.968;2022-07-01T01:17:12;25.10;99.90
17200;DHT22;8716;52.268;20.968;2022-07-01T01:19:41;25.10;99.90
17200;DHT22;8716;52.268;20.968;2022-07-01T01:22:11;25.10;99.90
17200;DHT22;8716;52.268;20.968;2022-07-01T01:24:42;25.10;99.90
17200;DHT22;8716;52.268;20.968;2022-07-01T01:27:11;25.00;99.90
17200;DHT22;8716;52.268;20.968;2022-07-01T01:29:40;25.10;99.90
17200;DHT22;8716;52.268;20.968;2022-07-01T01:32:09;25.10;99.90
17200;DHT22;8716;52.268;20.968;2022-07-01T01:34:38;25.00;99.90
17200;DHT22;8716;52.268;20.968;2022-07-01T01:37:08;25.00;99.90
17200;DHT22;8716;52.268;20.968;2022-07-01T01:39:37;25.00;99.90
17200;DHT22;8716;52.268;20.968;2022-07-01T01:42:06;24.90;99.90
17200;DHT22;8716;52.268;20.968;2022-07-01T01:44:34;24.90;99.90
17200;DHT22;8716;52.268;20.968;2022-07-01T01:47:03;24.90;99.90
17200;DHT22;8716;52.268;20.968;2022-07-01T01:49:31;24.90;99.90
17200;DHT22;8716;52.268;20.968;2022-07-01T01:51:59;24.80;99.90
17200;DHT22;8716;52.268;20.968;2022-07-01T01:54:28;24.80;99.90
17200;DHT22;8716;52.268;20.968;2022-07-01T01:56:57;24.80;99.90
17200;DHT22;8716;52.268;20.968;2022-07-01T01:59:25;24.70;99.90
17200;DHT22;8716;52.268;20.968;2022-07-01T02:01:53;24.60;99.90
17200;DHT22;8716;52.268;20.968;2022-07-01T02:04:22;24.60;99.90
17200;DHT22;8716;52.268;20.968;2022-07-01T02:06:51;24.60;99.90
17200;DHT22;8716;52.268;20.968;2022-07-01T02:09:20;24.50;99.90
17200;DHT22;8716;52.268;20.968;2022-07-01T02:11:48;24.50;99.90
17200;DHT22;8716;52.268;20.968;2022-07-01T02:14:20;24.50;99.90
17200;DHT22;8716;52.268;20.968;2022-07-01T02:16:48;24.40;99.90
17200;DHT22;8716;52.268;20.968;2022-07-01T02:19:16;24.30;99.90
17200;DHT22;8716;52.268;20.968;2022-07-01T02:21:44;24.30;99.90
17200;DHT22;8716;52.268;20.968;2022-07-01T02:24:12;24.30;99.90
17200;DHT22;8716;52.268;20.968;2022-07-01T02:26:40;24.30;99.90
17200;DHT22;8716;52.268;20.968;2022-07-01T02:29:09;24.20;99.90
17200;DHT22;8716;52.268;20.968;2022-07-01T02:31:38;24.10;99.90
17200;DHT22;8716;52.268;20.968;2022-07-01T02:34:06;24.00;99.90
17200;DHT22;8716;52.268;20.968;2022-07-01T02:36:34;23.90;99.90
17200;DHT22;8716;52.268;20.968;2022-07-01T02:39:03;23.90;99.90
17200;DHT22;8716;52.268;20.968;2022-07-01T02:41:31;23.90;99.90
17200;DHT22;8716;52.268;20.968;2022-07-01T02:44:19;23.80;99.90
17200;DHT22;8716;52.268;20.968;2022-07-01T02:46:49;23.80;99.90
17200;DHT22;8716;52.268;20.968;2022-07-01T02:49:17;23.70;99.90
17200;DHT22;8716;52.268;20.968;2022-07-01T02:51:45;23.60;99.90
17200;DHT22;8716;52.268;20.968;2022-07-01T02:54:13;23.50;99.90
17200;DHT22;8716;52.268;20.968;2022-07-01T02:56:41;23.50;99.90
17200;DHT22;8716;52.268;20.968;2022-07-01T02:59:09;23.50;99.90
17200;DHT22;8716;52.268;20.968;2022-07-01T03:01:37;23.50;99.90
17200;DHT22;8716;52.268;20.968;2022-07-01T03:04:07;23.50;99.90
17200;DHT22;8716;52.268;20.968;2022-07-01T03:06:35;23.50;99.90
17200;DHT22;8716;52.268;20.968;2022-07-01T03:09:03;23.40;99.90
17200;DHT22;8716;52.268;20.968;2022-07-01T03:11:32;23.40;99.90
17200;DHT22;8716;52.268;20.968;2022-07-01T03:14:00;23.40;99.90
17200;DHT22;8716;52.268;20.968;2022-07-01T03:16:28;23.40;99.90
17200;DHT22;8716;52.268;20.968;2022-07-01T03:18:56;23.40;99.90
17200;DHT22;8716;52.268;20.968;2022-07-01T03:21:25;23.40;99.90
17200;DHT22;8716;52.268;20.968;2022-07-01T03:23:53;23.40;99.90
17200;DHT22;8716;52.268;20.968;2022-07-01T03:26:21;23.40;99.90
17200;DHT22;8716;52.268;20.968;2022-07-01T03:28:50;23.40;99.90
17200;DHT22;8716;52.268;20.968;2022-07-01T03:31:18;23.40;99.90
17200;DHT22;8716;52.268;20.968;2022-07-01T03:33:46;23.40;99.90
17200;DHT22;8716;52.268;20.968;2022-07-01T03:36:14;23.40;99.90
17200;DHT22;8716;52.268;20.968;2022-07-01T03:38:43;23.40;99.90
17200;DHT22;8716;52.268;20.968;2022-07-01T03:41:11;23.40;99.90
17200;DHT22;8716;52.268;20.968;2022-07-01T03:43:40;23.50;99.90
17200;DHT22;8716;52.268;20.968;2022-07-01T03:46:08;23.50;99.90
17200;DHT22;8716;52.268;20.968;2022-07-01T03:48:36;23.60;99.90
17200;DHT22;8716;52.268;20.968;2022-07-01T03:51:08;23.60;99.90
17200;DHT22;8716;52.268;20.968;2022-07-01T03:53:36;23.60;99.90
17200;DHT22;8716;52.268;20.968;2022-07-01T03:56:23;23.50;99.90
17200;DHT22;8716;52.268;20.968;2022-07-01T03:58:51;23.60;99.90
17200;DHT22;8716;52.268;20.968;2022-07-01T04:01:19;23.60;99.90
17200;DHT22;8716;52.268;20.968;2022-07-01T04:03:47;23.70;99.90
17200;DHT22;8716;52.268;20.968;2022-07-01T04:06:18;23.70;99.90
17200;DHT22;8716;52.268;20.968;2022-07-01T04:08:47;23.90;99.90
17200;DHT22;8716;52.268;20.968;2022-07-01T04:11:16;23.90;99.90
17200;DHT22;8716;52.268;20.968;2022-07-01T04:13:46;24.00;99.90
17200;DHT22;8716;52.268;20.968;2022-07-01T04:16:17;24.10;99.90
17200;DHT22;8716;52.268;20.968;2022-07-01T04:18:48;24.10;99.90
17200;DHT22;8716;52.268;20.968;2022-07-01T04:21:17;24.30;99.90
17200;DHT22;8716;52.268;20.968;2022-07-01T04:24:04;24.40;99.90
17200;DHT22;8716;52.268;20.968;2022-07-01T04:26:33;24.50;99.90
17200;DHT22;8716;52.268;20.968;2022-07-01T04:29:05;24.60;99.90
17200;DHT22;8716;52.268;20.968;2022-07-01T04:31:36;24.70;99.90
17200;DHT22;8716;52.268;20.968;2022-07-01T04:34:06;24.80;99.90
17200;DHT22;8716;52.268;20.968;2022-07-01T04:36:34;24.80;99.90
17200;DHT22;8716;52.268;20.968;2022-07-01T04:39:04;24.90;99.90
17200;DHT22;8716;52.268;20.968;2022-07-01T04:41:33;25.00;99.90
17200;DHT22;8716;52.268;20.968;2022-07-01T04:44:20;25.10;99.90
17200;DHT22;8716;52.268;20.968;2022-07-01T04:46:48;25.30;99.90
17200;DHT22;8716;52.268;20.968;2022-07-01T04:49:16;25.40;99.90
17200;DHT22;8716;52.268;20.968;2022-07-01T04:51:44;25.80;99.90
17200;DHT22;8716;52.268;20.968;2022-07-01T04:54:12;26.20;99.90
17200;DHT22;8716;52.268;20.968;2022-07-01T04:56:40;26.60;99.90
17200;DHT22;8716;52.268;20.968;2022-07-01T04:59:10;27.00;99.90
17200;DHT22;8716;52.268;20.968;2022-07-01T05:01:41;27.50;99.90
17200;DHT22;8716;52.268;20.968;2022-07-01T05:04:09;28.00;99.90
17200;DHT22;8716;52.268;20.968;2022-07-01T05:06:37;28.50;99.90
17200;DHT22;8716;52.268;20.968;2022-07-01T05:09:06;28.90;99.90
17200;DHT22;8716;52.268;20.968;2022-07-01T05:11:34;29.30;99.90
17200;DHT22;8716;52.268;20.968;2022-07-01T05:14:02;29.80;99.90
17200;DHT22;8716;52.268;20.968;2022-07-01T05:16:30;30.00;99.90
17200;DHT22;8716;52.268;20.968;2022-07-01T05:19:00;30.10;99.90
17200;DHT22;8716;52.268;20.968;2022-07-01T05:21:46;30.30;99.90
17200;DHT22;8716;52.268;20.968;2022-07-01T05:24:29;30.40;99.90
17200;DHT22;8716;52.268;20.968;2022-07-01T05:26:58;30.80;99.90
17200;DHT22;8716;52.268;20.968;2022-07-01T05:29:26;31.30;99.90
17200;DHT22;8716;52.268;20.968;2022-07-01T05:31:55;31.90;99.90
17200;DHT22;8716;52.268;20.968;2022-07-01T05:34:24;32.40;99.90
17200;DHT22;8716;52.268;20.968;2022-07-01T05:36:52;32.90;99.90
17200;DHT22;8716;52.268;20.968;2022-07-01T05:39:20;33.40;99.90
17200;DHT22;8716;52.268;20.968;2022-07-01T05:41:49;33.90;99.90
17200;DHT22;8716;52.268;20.968;2022-07-01T05:44:17;34.50;99.90
17200;DHT22;8716;52.268;20.968;2022-07-01T05:46:47;35.00;99.90
17200;DHT22;8716;52.268;20.968;2022-07-01T05:49:15;35.40;99.90
17200;DHT22;8716;52.268;20.968;2022-07-01T05:51:46;35.70;99.90
17200;DHT22;8716;52.268;20.968;2022-07-01T05:54:14;36.10;99.20
17200;DHT22;8716;52.268;20.968;2022-07-01T05:56:48;36.40;97.90
17200;DHT22;8716;52.268;20.968;2022-07-01T05:59:16;36.80;97.30
17200;DHT22;8716;52.268;20.968;2022-07-01T06:01:46;37.20;96.10
17200;DHT22;8716;52.268;20.968;2022-07-01T06:04:20;37.70;94.80
17200;DHT22;8716;52.268;20.968;2022-07-01T06:06:49;38.10;93.60
17200;DHT22;8716;52.268;20.968;2022-07-01T06:09:17;38.20;91.50
17200;DHT22;8716;52.268;20.968;2022-07-01T06:11:45;38.00;91.30
17200;DHT22;8716;52.268;20.968;2022-07-01T06:14:13;38.10;91.20
17200;DHT22;8716;52.268;20.968;2022-07-01T06:16:44;38.50;91.10
17200;DHT22;8716;52.268;20.968;2022-07-01T06:19:15;39.00;89.40
17200;DHT22;8716;52.268;20.968;2022-07-01T06:21:46;39.10;88.30
17200;DHT22;8716;52.268;20.968;2022-07-01T06:24:19;39.50;87.10
17200;DHT22;8716;52.268;20.968;2022-07-01T06:26:48;39.80;84.80
17200;DHT22;8716;52.268;20.968;2022-07-01T06:29:16;39.90;83.40
17200;DHT22;8716;52.268;20.968;2022-07-01T06:31:44;39.80;82.50
17200;DHT22;8716;52.268;20.968;2022-07-01T06:34:12;40.10;82.40
17200;DHT22;8716;52.268;20.968;2022-07-01T06:36:43;40.40;81.50
17200;DHT22;8716;52.268;20.968;2022-07-01T06:39:11;40.60;80.50
17200;DHT22;8716;52.268;20.968;2022-07-01T06:41:41;40.80;79.00
17200;DHT22;8716;52.268;20.968;2022-07-01T06:44:09;40.80;78.20
17200;DHT22;8716;52.268;20.968;2022-07-01T06:46:37;40.50;77.00
17200;DHT22;8716;52.268;20.968;2022-07-01T06:49:05;40.10;78.20
17200;DHT22;8716;52.268;20.968;2022-07-01T06:51:33;39.80;79.60
17200;DHT22;8716;52.268;20.968;2022-07-01T06:54:01;40.00;78.40
17200;DHT22;8716;52.268;20.968;2022-07-01T06:56:30;40.00;78.60
17200;DHT22;8716;52.268;20.968;2022-07-01T06:58:59;40.20;78.80
17200;DHT22;8716;52.268;20.968;2022-07-01T07:01:28;40.30;78.00
17200;DHT22;8716;52.268;20.968;2022-07-01T07:03:56;40.40;77.40
17200;DHT22;8716;52.268;20.968;2022-07-01T07:06:25;40.20;77.40
17200;DHT22;8716;52.268;20.968;2022-07-01T07:08:53;40.20;77.60
17200;DHT22;8716;52.268;20.968;2022-07-01T07:11:23;40.40;76.80
17200;DHT22;8716;52.268;20.968;2022-07-01T07:13:53;40.60;76.30
17200;DHT22;8716;52.268;20.968;2022-07-01T07:16:23;40.80;75.90
17200;DHT22;8716;52.268;20.968;2022-07-01T07:18:55;41.10;74.60
17200;DHT22;8716;52.268;20.968;2022-07-01T07:21:23;41.50;74.40
17200;DHT22;8716;52.268;20.968;2022-07-01T07:23:51;41.70;72.60
17200;DHT22;8716;52.268;20.968;2022-07-01T07:26:20;41.70;72.30
17200;DHT22;8716;52.268;20.968;2022-07-01T07:28:50;42.10;72.10
17200;DHT22;8716;52.268;20.968;2022-07-01T07:31:24;42.20;70.80
17200;DHT22;8716;52.268;20.968;2022-07-01T07:33:52;42.30;70.70
17200;DHT22;8716;52.268;20.968;2022-07-01T07:36:20;42.60;70.00
17200;DHT22;8716;52.268;20.968;2022-07-01T07:38:48;42.90;68.80
17200;DHT22;8716;52.268;20.968;2022-07-01T07:41:17;43.10;68.90
17200;DHT22;8716;52.268;20.968;2022-07-01T07:43:45;43.70;67.30
17200;DHT22;8716;52.268;20.968;2022-07-01T07:46:14;44.10;67.40
17200;DHT22;8716;52.268;20.968;2022-07-01T07:48:44;44.50;65.60
17200;DHT22;8716;52.268;20.968;2022-07-01T07:51:12;44.80;64.90
17200;DHT22;8716;52.268;20.968;2022-07-01T07:53:51;45.20;64.00
17200;DHT22;8716;52.268;20.968;2022-07-01T07:56:19;45.40;62.50
17200;DHT22;8716;52.268;20.968;2022-07-01T07:58:48;45.60;62.50
17200;DHT22;8716;52.268;20.968;2022-07-01T08:01:16;45.90;61.50
17200;DHT22;8716;52.268;20.968;2022-07-01T08:03:46;46.50;60.70
17200;DHT22;8716;52.268;20.968;2022-07-01T08:06:14;46.60;60.20
17200;DHT22;8716;52.268;20.968;2022-07-01T08:08:42;46.60;58.30
17200;DHT22;8716;52.268;20.968;2022-07-01T08:11:10;46.70;59.10
17200;DHT22;8716;52.268;20.968;2022-07-01T08:13:38;47.00;58.30
17200;DHT22;8716;52.268;20.968;2022-07-01T08:16:07;47.40;58.00
17200;DHT22;8716;52.268;20.968;2022-07-01T08:18:35;47.60;56.90
17200;DHT22;8716;52.268;20.968;2022-07-01T08:21:05;47.70;56.50
17200;DHT22;8716;52.268;20.968;2022-07-01T08:23:33;48.00;56.20
17200;DHT22;8716;52.268;20.968;2022-07-01T08:26:02;48.40;55.80
17200;DHT22;8716;52.268;20.968;2022-07-01T08:28:30;48.70;54.80
17200;DHT22;8716;52.268;20.968;2022-07-01T08:30:59;48.80;54.10
17200;DHT22;8716;52.268;20.968;2022-07-01T08:33:28;49.00;53.90
17200;DHT22;8716;52.268;20.968;2022-07-01T08:35:56;49.00;53.50
17200;DHT22;8716;52.268;20.968;2022-07-01T08:38:26;49.20;52.30
17200;DHT22;8716;52.268;20.968;2022-07-01T08:40:54;49.40;52.20
17200;DHT22;8716;52.268;20.968;2022-07-01T08:43:23;49.70;51.70
17200;DHT22;8716;52.268;20.968;2022-07-01T08:45:51;49.80;51.10
17200;DHT22;8716;52.268;20.968;2022-07-01T08:48:22;49.90;49.40
17200;DHT22;8716;52.268;20.968;2022-07-01T08:50:50;49.90;49.00
17200;DHT22;8716;52.268;20.968;2022-07-01T08:53:18;50.00;49.60
17200;DHT22;8716;52.268;20.968;2022-07-01T08:55:47;49.90;48.00
17200;DHT22;8716;52.268;20.968;2022-07-01T08:58:33;49.80;48.30
17200;DHT22;8716;52.268;20.968;2022-07-01T09:01:15;49.70;48.90
17200;DHT22;8716;52.268;20.968;2022-07-01T09:03:44;49.60;48.30
17200;DHT22;8716;52.268;20.968;2022-07-01T09:06:15;49.60;48.50
17200;DHT22;8716;52.268;20.968;2022-07-01T09:08:44;49.60;47.70
17200;DHT22;8716;52.268;20.968;2022-07-01T09:11:15;49.50;47.40
17200;DHT22;8716;52.268;20.968;2022-07-01T09:13:44;49.50;47.80
17200;DHT22;8716;52.268;20.968;2022-07-01T09:16:15;49.30;48.10
17200;DHT22;8716;52.268;20.968;2022-07-01T09:19:00;49.20;47.60
17200;DHT22;8716;52.268;20.968;2022-07-01T09:21:30;48.90;47.80
17200;DHT22;8716;52.268;20.968;2022-07-01T09:23:59;48.70;48.50
17200;DHT22;8716;52.268;20.968;2022-07-01T09:26:32;48.40;48.90
17200;DHT22;8716;52.268;20.968;2022-07-01T09:29:00;48.20;48.90
17200;DHT22;8716;52.268;20.968;2022-07-01T09:31:32;47.90;49.00
17200;DHT22;8716;52.268;20.968;2022-07-01T09:34:05;47.50;49.50
17200;DHT22;8716;52.268;20.968;2022-07-01T09:36:37;47.20;50.20
17200;DHT22;8716;52.268;20.968;2022-07-01T09:39:09;46.90;50.10
17200;DHT22;8716;52.268;20.968;2022-07-01T09:41:59;46.30;49.90
17200;DHT22;8716;52.268;20.968;2022-07-01T09:44:27;45.70;50.90
17200;DHT22;8716;52.268;20.968;2022-07-01T09:46:57;45.40;51.80
17200;DHT22;8716;52.268;20.968;2022-07-01T09:49:27;45.10;51.40
17200;DHT22;8716;52.268;20.968;2022-07-01T09:51:55;44.60;52.20
17200;DHT22;8716;52.268;20.968;2022-07-01T09:54:24;44.30;52.70
17200;DHT22;8716;52.268;20.968;2022-07-01T09:56:52;44.00;52.90
17200;DHT22;8716;52.268;20.968;2022-07-01T09:59:21;43.80;53.10
17200;DHT22;8716;52.268;20.968;2022-07-01T10:01:49;43.70;53.40
17200;DHT22;8716;52.268;20.968;2022-07-01T10:04:20;43.40;53.40
17200;DHT22;8716;52.268;20.968;2022-07-01T10:07:09;43.20;53.80
17200;DHT22;8716;52.268;20.968;2022-07-01T10:09:55;42.80;54.10
17200;DHT22;8716;52.268;20.968;2022-07-01T10:12:36;42.60;54.40
17200;DHT22;8716;52.268;20.968;2022-07-01T10:15:09;42.40;56.10
17200;DHT22;8716;52.268;20.968;2022-07-01T10:17:42;42.00;54.80
17200;DHT22;8716;52.268;20.968;2022-07-01T10:20:12;41.90;55.40
17200;DHT22;8716;52.268;20.968;2022-07-01T10:22:46;41.70;55.80
17200;DHT22;8716;52.268;20.968;2022-07-01T10:25:45;41.60;55.80
17200;DHT22;8716;52.268;20.968;2022-07-01T10:28:22;41.40;55.00
17200;DHT22;8716;52.268;20.968;2022-07-01T10:30:57;41.20;55.60
17200;DHT22;8716;52.268;20.968;2022-07-01T10:33:37;41.10;55.80
17200;DHT22;8716;52.268;20.968;2022-07-01T10:36:15;41.00;56.00
17200;DHT22;8716;52.268;20.968;2022-07-01T10:39:15;40.80;56.00
17200;DHT22;8716;52.268;20.968;2022-07-01T10:42:00;40.70;56.10
17200;DHT22;8716;52.268;20.968;2022-07-01T10:45:08;40.40;56.50
17200;DHT22;8716;52.268;20.968;2022-07-01T10:47:39;40.00;56.70
17200;DHT22;8716;52.268;20.968;2022-07-01T10:50:10;39.80;56.70
17200;DHT22;8716;52.268;20.968;2022-07-01T10:52:40;39.50;56.20
17200;DHT22;8716;52.268;20.968;2022-07-01T10:55:36;39.40;55.80
17200;DHT22;8716;52.268;20.968;2022-07-01T10:58:05;39.40;56.50
17200;DHT22;8716;52.268;20.968;2022-07-01T11:00:35;39.40;56.70
17200;DHT22;8716;52.268;20.968;2022-07-01T11:03:14;39.50;56.90
17200;DHT22;8716;52.268;20.968;2022-07-01T11:05:44;39.60;56.60
17200;DHT22;8716;52.268;20.968;2022-07-01T11:08:12;39.60;56.30
17200;DHT22;8716;52.268;20.968;2022-07-01T11:10:54;39.70;56.70
17200;DHT22;8716;52.268;20.968;2022-07-01T11:13:24;39.60;56.80
17200;DHT22;8716;52.268;20.968;2022-07-01T11:15:54;39.60;56.00
17200;DHT22;8716;52.268;20.968;2022-07-01T11:18:24;39.60;55.20
17200;DHT22;8716;52.268;20.968;2022-07-01T11:20:52;39.60;54.50
17200;DHT22;8716;52.268;20.968;2022-07-01T11:23:21;39.50;55.30
17200;DHT22;8716;52.268;20.968;2022-07-01T11:25:49;39.50;56.00
17200;DHT22;8716;52.268;20.968;2022-07-01T11:28:17;39.30;56.00
17200;DHT22;8716;52.268;20.968;2022-07-01T11:30:46;39.10;56.20
17200;DHT22;8716;52.268;20.968;2022-07-01T11:33:14;38.90;56.30
17200;DHT22;8716;52.268;20.968;2022-07-01T11:35:45;38.70;57.20
17200;DHT22;8716;52.268;20.968;2022-07-01T11:38:30;38.60;57.50
17200;DHT22;8716;52.268;20.968;2022-07-01T11:41:22;38.50;56.10
17200;DHT22;8716;52.268;20.968;2022-07-01T11:43:52;38.30;56.70
17200;DHT22;8716;52.268;20.968;2022-07-01T11:46:20;38.20;57.20
17200;DHT22;8716;52.268;20.968;2022-07-01T11:48:51;38.10;57.80
17200;DHT22;8716;52.268;20.968;2022-07-01T11:51:23;38.00;58.30
17200;DHT22;8716;52.268;20.968;2022-07-01T11:53:54;37.90;58.40
17200;DHT22;8716;52.268;20.968;2022-07-01T11:56:30;37.70;59.10
17200;DHT22;8716;52.268;20.968;2022-07-01T11:58:58;37.60;59.00
17200;DHT22;8716;52.268;20.968;2022-07-01T12:01:30;37.40;59.30
17200;DHT22;8716;52.268;20.968;2022-07-01T12:04:00;37.30;59.00
17200;DHT22;8716;52.268;20.968;2022-07-01T12:06:31;37.20;59.70
17200;DHT22;8716;52.268;20.968;2022-07-01T12:09:02;37.00;59.20
17200;DHT22;8716;52.268;20.968;2022-07-01T12:11:30;37.00;59.40
17200;DHT22;8716;52.268;20.968;2022-07-01T12:14:05;36.90;59.30
17200;DHT22;8716;52.268;20.968;2022-07-01T12:16:38;36.90;59.10
17200;DHT22;8716;52.268;20.968;2022-07-01T12:19:07;36.90;58.30
17200;DHT22;8716;52.268;20.968;2022-07-01T12:21:49;36.80;58.40
17200;DHT22;8716;52.268;20.968;2022-07-01T12:24:18;36.80;58.30
17200;DHT22;8716;52.268;20.968;2022-07-01T12:26:51;36.80;58.70
17200;DHT22;8716;52.268;20.968;2022-07-01T12:29:21;36.70;58.60
17200;DHT22;8716;52.268;20.968;2022-07-01T12:32:00;36.80;57.70
17200;DHT22;8716;52.268;20.968;2022-07-01T12:34:40;36.90;57.70
17200;DHT22;8716;52.268;20.968;2022-07-01T12:37:11;37.00;58.00
17200;DHT22;8716;52.268;20.968;2022-07-01T12:39:44;37.00;58.60
17200;DHT22;8716;52.268;20.968;2022-07-01T12:42:24;37.10;59.10
17200;DHT22;8716;52.268;20.968;2022-07-01T12:44:53;37.10;57.90
17200;DHT22;8716;52.268;20.968;2022-07-01T12:47:25;37.20;57.60
17200;DHT22;8716;52.268;20.968;2022-07-01T12:50:14;37.20;58.10
17200;DHT22;8716;52.268;20.968;2022-07-01T12:52:57;37.10;57.90
17200;DHT22;8716;52.268;20.968;2022-07-01T12:55:26;37.20;57.70
17200;DHT22;8716;52.268;20.968;2022-07-01T12:57:56;37.20;57.50
17200;DHT22;8716;52.268;20.968;2022-07-01T13:00:27;37.20;56.80
17200;DHT22;8716;52.268;20.968;2022-07-01T13:02:57;37.10;57.60
17200;DHT22;8716;52.268;20.968;2022-07-01T13:05:26;37.00;57.80
17200;DHT22;8716;52.268;20.968;2022-07-01T13:07:56;37.00;58.20
17200;DHT22;8716;52.268;20.968;2022-07-01T13:10:24;37.00;58.30
17200;DHT22;8716;52.268;20.968;2022-07-01T13:12:52;37.00;58.00
17200;DHT22;8716;52.268;20.968;2022-07-01T13:15:21;36.90;57.70
17200;DHT22;8716;52.268;20.968;2022-07-01T13:17:50;36.90;58.20
17200;DHT22;8716;52.268;20.968;2022-07-01T13:20:18;36.80;58.50
17200;DHT22;8716;52.268;20.968;2022-07-01T13:22:47;36.80;58.70
17200;DHT22;8716;52.268;20.968;2022-07-01T13:25:16;36.70;59.00
17200;DHT22;8716;52.268;20.968;2022-07-01T13:27:44;36.70;59.10
17200;DHT22;8716;52.268;20.968;2022-07-01T13:30:13;36.70;58.90
17200;DHT22;8716;52.268;20.968;2022-07-01T13:32:42;36.70;59.10
17200;DHT22;8716;52.268;20.968;2022-07-01T13:35:12;36.70;59.20
17200;DHT22;8716;52.268;20.968;2022-07-01T13:37:42;36.60;59.20
17200;DHT22;8716;52.268;20.968;2022-07-01T13:40:10;36.60;59.30
17200;DHT22;8716;52.268;20.968;2022-07-01T13:42:40;36.60;58.80
17200;DHT22;8716;52.268;20.968;2022-07-01T13:45:09;36.60;59.00
17200;DHT22;8716;52.268;20.968;2022-07-01T13:47:37;36.50;59.60
17200;DHT22;8716;52.268;20.968;2022-07-01T13:50:06;36.40;60.00
17200;DHT22;8716;52.268;20.968;2022-07-01T13:52:34;36.30;60.10
17200;DHT22;8716;52.268;20.968;2022-07-01T13:55:03;36.30;60.70
17200;DHT22;8716;52.268;20.968;2022-07-01T13:57:33;36.20;61.00
17200;DHT22;8716;52.268;20.968;2022-07-01T14:00:04;36.10;61.80
17200;DHT22;8716;52.268;20.968;2022-07-01T14:02:34;36.00;62.00
17200;DHT22;8716;52.268;20.968;2022-07-01T14:05:03;36.00;63.10
17200;DHT22;8716;52.268;20.968;2022-07-01T14:07:31;35.90;62.10
17200;DHT22;8716;52.268;20.968;2022-07-01T14:09:59;35.80;61.90
17200;DHT22;8716;52.268;20.968;2022-07-01T14:12:28;35.70;61.50
17200;DHT22;8716;52.268;20.968;2022-07-01T14:14:57;35.70;62.20
17200;DHT22;8716;52.268;20.968;2022-07-01T14:17:27;35.60;61.60
17200;DHT22;8716;52.268;20.968;2022-07-01T14:19:56;35.60;61.40
17200;DHT22;8716;52.268;20.968;2022-07-01T14:22:25;35.70;61.30
17200;DHT22;8716;52.268;20.968;2022-07-01T14:24:53;35.80;61.30
17200;DHT22;8716;52.268;20.968;2022-07-01T14:27:21;35.80;60.90
17200;DHT22;8716;52.268;20.968;2022-07-01T14:29:49;35.80;61.20
17200;DHT22;8716;52.268;20.968;2022-07-01T14:32:26;35.80;61.40
17200;DHT22;8716;52.268;20.968;2022-07-01T14:34:55;35.90;61.40
17200;DHT22;8716;52.268;20.968;2022-07-01T14:37:23;35.90;61.00
17200;DHT22;8716;52.268;20.968;2022-07-01T14:39:52;35.90;60.90
17200;DHT22;8716;52.268;20.968;2022-07-01T14:42:23;35.90;61.20
17200;DHT22;8716;52.268;20.968;2022-07-01T14:44:54;35.90;61.30
17200;DHT22;8716;52.268;20.968;2022-07-01T14:47:23;35.80;61.30
17200;DHT22;8716;52.268;20.968;2022-07-01T14:49:52;35.90;61.60
17200;DHT22;8716;52.268;20.968;2022-07-01T14:52:21;35.80;61.20
17200;DHT22;8716;52.268;20.968;2022-07-01T14:54:49;35.90;60.50
17200;DHT22;8716;52.268;20.968;2022-07-01T14:57:18;35.90;60.70
17200;DHT22;8716;52.268;20.968;2022-07-01T14:59:46;35.90;61.00
17200;DHT22;8716;52.268;20.968;2022-07-01T15:02:14;35.90;60.90
17200;DHT22;8716;52.268;20.968;2022-07-01T15:04:43;35.80;61.20
17200;DHT22;8716;52.268;20.968;2022-07-01T15:07:14;35.80;61.00
17200;DHT22;8716;52.268;20.968;2022-07-01T15:09:42;35.70;61.40
17200;DHT22;8716;52.268;20.968;2022-07-01T15:12:10;35.70;62.00
17200;DHT22;8716;52.268;20.968;2022-07-01T15:14:39;35.70;61.60
17200;DHT22;8716;52.268;20.968;2022-07-01T15:17:08;35.80;61.40
17200;DHT22;8716;52.268;20.968;2022-07-01T15:19:36;35.80;61.40
17200;DHT22;8716;52.268;20.968;2022-07-01T15:22:07;35.80;61.60
17200;DHT22;8716;52.268;20.968;2022-07-01T15:24:37;35.70;61.40
17200;DHT22;8716;52.268;20.968;2022-07-01T15:27:07;35.60;61.60
17200;DHT22;8716;52.268;20.968;2022-07-01T15:29:35;35.60;62.00
17200;DHT22;8716;52.268;20.968;2022-07-01T15:32:05;35.50;61.50
17200;DHT22;8716;52.268;20.968;2022-07-01T15:34:34;35.40;61.50
17200;DHT22;8716;52.268;20.968;2022-07-01T15:37:03;35.40;61.40
17200;DHT22;8716;52.268;20.968;2022-07-01T15:39:31;35.40;62.10
17200;DHT22;8716;52.268;20.968;2022-07-01T15:42:05;35.40;61.10
17200;DHT22;8716;52.268;20.968;2022-07-01T15:44:33;35.30;61.70
17200;DHT22;8716;52.268;20.968;2022-07-01T15:47:02;35.30;61.30
17200;DHT22;8716;52.268;20.968;2022-07-01T15:49:51;35.30;61.00
17200;DHT22;8716;52.268;20.968;2022-07-01T15:52:19;35.30;61.00